JST733 YMML-YMLT
Flight info
| Callsign | JST733 |
|---|---|
| Flight time | 0h 50m |
| Altitude | 37000 |
| Route | SUNTI H169 IRSOM W105 LT |
| Aircraft | A320/M-SDE3FGHIRWY/LB1 |
Departure
| Time | 2026-05-04 20:04 |
|---|---|
| Airport | Melbourne Airport (YMML) |
Arrival
| Time | 2026-05-04 20:54 |
|---|---|
| Airport | Launceston Airport (YMLT) |
| Time | Latitude | Longitude | Altitude | Speed | Heading |
|---|---|---|---|---|---|
| 2026-05-04 19:34 | -37.67617 | 144.84749 | 378 ft | 0 kts | 351° |
| 2026-05-04 19:55 | -37.67631 | 144.84752 | 377 ft | 4 kts | 339° |
| 2026-05-04 19:55 | -37.67649 | 144.84767 | 377 ft | 4 kts | 279° |
| 2026-05-04 19:55 | -37.67645 | 144.84784 | 377 ft | 1 kts | 220° |
| 2026-05-04 19:56 | -37.67643 | 144.84786 | 378 ft | 1 kts | 220° |
| 2026-05-04 20:00 | -37.67665 | 144.84765 | 376 ft | 7 kts | 212° |
| 2026-05-04 20:00 | -37.67719 | 144.84758 | 374 ft | 9 kts | 206° |
| 2026-05-04 20:01 | -37.67741 | 144.84660 | 369 ft | 12 kts | 266° |
| 2026-05-04 20:01 | -37.67797 | 144.84596 | 371 ft | 10 kts | 188° |
| 2026-05-04 20:01 | -37.67825 | 144.84505 | 364 ft | 14 kts | 260° |
| 2026-05-04 20:01 | -37.67842 | 144.84365 | 363 ft | 17 kts | 262° |
| 2026-05-04 20:02 | -37.67861 | 144.84211 | 360 ft | 13 kts | 261° |
| 2026-05-04 20:02 | -37.67872 | 144.84121 | 364 ft | 2 kts | 261° |
| 2026-05-04 20:02 | -37.67877 | 144.84082 | 356 ft | 7 kts | 261° |
| 2026-05-04 20:02 | -37.67885 | 144.84018 | 357 ft | 6 kts | 261° |
| 2026-05-04 20:03 | -37.67872 | 144.83970 | 358 ft | 6 kts | 320° |
| 2026-05-04 20:03 | -37.67847 | 144.83964 | 362 ft | 1 kts | 352° |
| 2026-05-04 20:03 | -37.67833 | 144.83962 | 361 ft | 8 kts | 352° |
| 2026-05-04 20:03 | -37.67546 | 144.83908 | 369 ft | 77 kts | 351° |
| 2026-05-04 20:04 | -37.66822 | 144.83773 | 395 ft | 131 kts | 351° |
| 2026-05-04 20:04 | -37.65840 | 144.83583 | 754 ft | 143 kts | 351° |
| 2026-05-04 20:04 | -37.64856 | 144.83402 | 1349 ft | 144 kts | 348° |
| 2026-05-04 20:04 | -37.63850 | 144.83218 | 1896 ft | 148 kts | 344° |
| 2026-05-04 20:05 | -37.62813 | 144.83014 | 2366 ft | 154 kts | 342° |
| 2026-05-04 20:05 | -37.61714 | 144.82776 | 2657 ft | 169 kts | 342° |
| 2026-05-04 20:05 | -37.60456 | 144.82495 | 2782 ft | 202 kts | 343° |
| 2026-05-04 20:05 | -37.58965 | 144.82387 | 3032 ft | 238 kts | 7° |
| 2026-05-04 20:06 | -37.57338 | 144.83291 | 3401 ft | 273 kts | 27° |
| 2026-05-04 20:06 | -37.55592 | 144.84532 | 3809 ft | 298 kts | 26° |
| 2026-05-04 20:06 | -37.53777 | 144.85731 | 4998 ft | 292 kts | 24° |
| 2026-05-04 20:06 | -37.51942 | 144.86851 | 6118 ft | 293 kts | 22° |
| 2026-05-04 20:07 | -37.50095 | 144.87932 | 7093 ft | 296 kts | 22° |
| 2026-05-04 20:07 | -37.48217 | 144.89049 | 8045 ft | 300 kts | 27° |
| 2026-05-04 20:07 | -37.46615 | 144.90750 | 8928 ft | 306 kts | 54° |
| 2026-05-04 20:07 | -37.45688 | 144.93156 | 9692 ft | 309 kts | 79° |
| 2026-05-04 20:08 | -37.45627 | 144.95804 | 10303 ft | 303 kts | 105° |
| 2026-05-04 20:08 | -37.46377 | 144.98253 | 11153 ft | 299 kts | 127° |
| 2026-05-04 20:08 | -37.47784 | 145.00218 | 11521 ft | 312 kts | 149° |
| 2026-05-04 20:08 | -37.49792 | 145.01319 | 11882 ft | 320 kts | 174° |
| 2026-05-04 20:09 | -37.52026 | 145.01450 | 12605 ft | 323 kts | 184° |
| 2026-05-04 20:09 | -37.54282 | 145.01446 | 13472 ft | 327 kts | 184° |
| 2026-05-04 20:09 | -37.56580 | 145.01449 | 14303 ft | 331 kts | 184° |
| 2026-05-04 20:09 | -37.58889 | 145.01453 | 15093 ft | 334 kts | 184° |
| 2026-05-04 20:10 | -37.61224 | 145.01460 | 15895 ft | 337 kts | 184° |
| 2026-05-04 20:10 | -37.63575 | 145.01470 | 16682 ft | 339 kts | 184° |
| 2026-05-04 20:10 | -37.65942 | 145.01482 | 17452 ft | 342 kts | 184° |
| 2026-05-04 20:10 | -37.68328 | 145.01491 | 18242 ft | 345 kts | 184° |
| 2026-05-04 20:11 | -37.70747 | 145.01497 | 18942 ft | 348 kts | 184° |
| 2026-05-04 20:11 | -37.73159 | 145.01337 | 19622 ft | 349 kts | 190° |
| 2026-05-04 20:11 | -37.75588 | 145.00973 | 20365 ft | 353 kts | 190° |
| 2026-05-04 20:11 | -37.78040 | 145.00606 | 21102 ft | 356 kts | 191° |
| 2026-05-04 20:12 | -37.80519 | 145.00236 | 21811 ft | 360 kts | 191° |
| 2026-05-04 20:12 | -37.82994 | 144.99865 | 22474 ft | 364 kts | 191° |
| 2026-05-04 20:12 | -37.85518 | 144.99483 | 23173 ft | 368 kts | 191° |
| 2026-05-04 20:12 | -37.88082 | 144.99093 | 23829 ft | 372 kts | 191° |
| 2026-05-04 20:13 | -37.90668 | 144.98701 | 24414 ft | 376 kts | 191° |
| 2026-05-04 20:13 | -37.93278 | 144.98308 | 24980 ft | 380 kts | 191° |
| 2026-05-04 20:13 | -37.95934 | 144.98013 | 25543 ft | 387 kts | 185° |
| 2026-05-04 20:13 | -37.98644 | 144.98306 | 26084 ft | 398 kts | 175° |
| 2026-05-04 20:14 | -38.01348 | 144.99277 | 26617 ft | 409 kts | 167° |
| 2026-05-04 20:14 | -38.04006 | 145.00466 | 27148 ft | 413 kts | 167° |
| 2026-05-04 20:14 | -38.06759 | 145.01690 | 27662 ft | 417 kts | 167° |
| 2026-05-04 20:14 | -38.09479 | 145.02896 | 28161 ft | 421 kts | 167° |
| 2026-05-04 20:15 | -38.12255 | 145.04124 | 28657 ft | 425 kts | 167° |
| 2026-05-04 20:15 | -38.15064 | 145.05367 | 29132 ft | 429 kts | 167° |
| 2026-05-04 20:15 | -38.17894 | 145.06626 | 29592 ft | 433 kts | 167° |
| 2026-05-04 20:15 | -38.20750 | 145.07901 | 30034 ft | 437 kts | 167° |
| 2026-05-04 20:16 | -38.23626 | 145.09186 | 30407 ft | 440 kts | 167° |
| 2026-05-04 20:16 | -38.26536 | 145.10482 | 30755 ft | 444 kts | 167° |
| 2026-05-04 20:16 | -38.29452 | 145.11781 | 31096 ft | 447 kts | 167° |
| 2026-05-04 20:16 | -38.32400 | 145.13096 | 31448 ft | 450 kts | 167° |
| 2026-05-04 20:17 | -38.35366 | 145.14428 | 31936 ft | 449 kts | 167° |
| 2026-05-04 20:17 | -38.38248 | 145.15726 | 32390 ft | 449 kts | 167° |
| 2026-05-04 20:17 | -38.41239 | 145.17072 | 32844 ft | 449 kts | 167° |
| 2026-05-04 20:17 | -38.44152 | 145.18380 | 33294 ft | 450 kts | 167° |
| 2026-05-04 20:18 | -38.47161 | 145.19729 | 33766 ft | 450 kts | 167° |
| 2026-05-04 20:18 | -38.50120 | 145.21056 | 34184 ft | 451 kts | 166° |
| 2026-05-04 20:18 | -38.53081 | 145.22378 | 34564 ft | 451 kts | 167° |
| 2026-05-04 20:18 | -38.56002 | 145.23669 | 34934 ft | 452 kts | 167° |
| 2026-05-04 20:19 | -38.58981 | 145.24975 | 35317 ft | 452 kts | 167° |
| 2026-05-04 20:19 | -38.61953 | 145.26270 | 35684 ft | 453 kts | 167° |
| 2026-05-04 20:19 | -38.64948 | 145.27575 | 36046 ft | 454 kts | 167° |
| 2026-05-04 20:19 | -38.67932 | 145.28883 | 36403 ft | 455 kts | 167° |
| 2026-05-04 20:20 | -38.70930 | 145.30203 | 36757 ft | 455 kts | 166° |
| 2026-05-04 20:20 | -38.73920 | 145.31525 | 36999 ft | 457 kts | 166° |
| 2026-05-04 20:20 | -38.76929 | 145.32859 | 37047 ft | 458 kts | 166° |
| 2026-05-04 20:21 | -38.82959 | 145.35547 | 37040 ft | 458 kts | 166° |
| 2026-05-04 20:21 | -38.91471 | 145.39318 | 37036 ft | 458 kts | 166° |
| 2026-05-04 20:22 | -38.97501 | 145.41997 | 37029 ft | 458 kts | 166° |
| 2026-05-04 20:22 | -39.03534 | 145.44685 | 37032 ft | 458 kts | 166° |
| 2026-05-04 20:23 | -39.09545 | 145.47370 | 37030 ft | 458 kts | 166° |
| 2026-05-04 20:23 | -39.15583 | 145.50057 | 37031 ft | 459 kts | 166° |
| 2026-05-04 20:24 | -39.21622 | 145.52754 | 37032 ft | 459 kts | 166° |
| 2026-05-04 20:24 | -39.27639 | 145.55465 | 37029 ft | 459 kts | 166° |
| 2026-05-04 20:25 | -39.33639 | 145.58161 | 37026 ft | 459 kts | 166° |
| 2026-05-04 20:25 | -39.39698 | 145.60887 | 37023 ft | 459 kts | 166° |
| 2026-05-04 20:26 | -39.45689 | 145.63596 | 37019 ft | 459 kts | 166° |
| 2026-05-04 20:26 | -39.51763 | 145.66346 | 37017 ft | 459 kts | 166° |
| 2026-05-04 20:27 | -39.57774 | 145.69065 | 37013 ft | 459 kts | 166° |
| 2026-05-04 20:27 | -39.63808 | 145.71798 | 37010 ft | 460 kts | 166° |
| 2026-05-04 20:28 | -39.69854 | 145.74551 | 37010 ft | 460 kts | 166° |
| 2026-05-04 20:28 | -39.75876 | 145.77290 | 37003 ft | 460 kts | 166° |
| 2026-05-04 20:29 | -39.81925 | 145.80048 | 36998 ft | 459 kts | 166° |
| 2026-05-04 20:29 | -39.87943 | 145.82804 | 36992 ft | 459 kts | 166° |
| 2026-05-04 20:30 | -39.93974 | 145.85560 | 36988 ft | 459 kts | 165° |
| 2026-05-04 20:30 | -40.00001 | 145.88317 | 36987 ft | 459 kts | 165° |
| 2026-05-04 20:31 | -40.03020 | 145.89706 | 36753 ft | 460 kts | 165° |
| 2026-05-04 20:31 | -40.06023 | 145.91091 | 35758 ft | 467 kts | 165° |
| 2026-05-04 20:31 | -40.09127 | 145.92531 | 35016 ft | 466 kts | 165° |
| 2026-05-04 20:31 | -40.12141 | 145.93934 | 34288 ft | 465 kts | 165° |
| 2026-05-04 20:32 | -40.15175 | 145.95349 | 33551 ft | 462 kts | 165° |
| 2026-05-04 20:32 | -40.18181 | 145.96752 | 32965 ft | 454 kts | 165° |
| 2026-05-04 20:32 | -40.21134 | 145.98132 | 32438 ft | 447 kts | 165° |
| 2026-05-04 20:32 | -40.24033 | 145.99487 | 31891 ft | 441 kts | 165° |
| 2026-05-04 20:33 | -40.26912 | 146.00833 | 31357 ft | 435 kts | 165° |
| 2026-05-04 20:33 | -40.29743 | 146.02154 | 30821 ft | 429 kts | 165° |
| 2026-05-04 20:33 | -40.32549 | 146.03462 | 30285 ft | 424 kts | 165° |
| 2026-05-04 20:33 | -40.35309 | 146.04748 | 29727 ft | 419 kts | 165° |
| 2026-05-04 20:34 | -40.38030 | 146.06018 | 29202 ft | 412 kts | 165° |
| 2026-05-04 20:34 | -40.40709 | 146.07273 | 28702 ft | 405 kts | 165° |
| 2026-05-04 20:34 | -40.43341 | 146.08507 | 28201 ft | 399 kts | 165° |
| 2026-05-04 20:34 | -40.45933 | 146.09727 | 27724 ft | 393 kts | 165° |
| 2026-05-04 20:35 | -40.48496 | 146.10929 | 27248 ft | 387 kts | 165° |
| 2026-05-04 20:35 | -40.50982 | 146.12097 | 26808 ft | 382 kts | 165° |
| 2026-05-04 20:35 | -40.53465 | 146.13257 | 26366 ft | 377 kts | 165° |
| 2026-05-04 20:35 | -40.55945 | 146.14416 | 25933 ft | 372 kts | 165° |
| 2026-05-04 20:36 | -40.58354 | 146.15545 | 25521 ft | 369 kts | 165° |
| 2026-05-04 20:36 | -40.60758 | 146.16679 | 25111 ft | 366 kts | 165° |
| 2026-05-04 20:36 | -40.63175 | 146.17817 | 24708 ft | 363 kts | 165° |
| 2026-05-04 20:36 | -40.65544 | 146.18932 | 24308 ft | 360 kts | 165° |
| 2026-05-04 20:37 | -40.67898 | 146.20040 | 23883 ft | 359 kts | 165° |
| 2026-05-04 20:37 | -40.70247 | 146.21149 | 23467 ft | 357 kts | 164° |
| 2026-05-04 20:37 | -40.72551 | 146.22240 | 23007 ft | 355 kts | 164° |
| 2026-05-04 20:37 | -40.74857 | 146.23335 | 22578 ft | 351 kts | 164° |
| 2026-05-04 20:38 | -40.77139 | 146.24424 | 22152 ft | 347 kts | 164° |
| 2026-05-04 20:38 | -40.79401 | 146.25502 | 21705 ft | 344 kts | 164° |
| 2026-05-04 20:38 | -40.81648 | 146.26573 | 21273 ft | 341 kts | 164° |
| 2026-05-04 20:38 | -40.83861 | 146.27624 | 20830 ft | 338 kts | 164° |
| 2026-05-04 20:39 | -40.86076 | 146.28671 | 20384 ft | 336 kts | 165° |
| 2026-05-04 20:39 | -40.88265 | 146.29704 | 19936 ft | 334 kts | 164° |
| 2026-05-04 20:39 | -40.90446 | 146.30740 | 19490 ft | 332 kts | 164° |
| 2026-05-04 20:39 | -40.92620 | 146.31773 | 19044 ft | 331 kts | 164° |
| 2026-05-04 20:40 | -40.94780 | 146.32802 | 18595 ft | 331 kts | 164° |
| 2026-05-04 20:40 | -40.96954 | 146.33834 | 18144 ft | 330 kts | 164° |
| 2026-05-04 20:40 | -40.99107 | 146.34853 | 17656 ft | 329 kts | 164° |
| 2026-05-04 20:40 | -41.01259 | 146.35880 | 17206 ft | 327 kts | 164° |
| 2026-05-04 20:41 | -41.03394 | 146.36900 | 16763 ft | 325 kts | 164° |
| 2026-05-04 20:41 | -41.05516 | 146.37914 | 16322 ft | 323 kts | 164° |
| 2026-05-04 20:41 | -41.07621 | 146.38925 | 15883 ft | 322 kts | 164° |
| 2026-05-04 20:41 | -41.09719 | 146.39933 | 15444 ft | 321 kts | 163° |
| 2026-05-04 20:42 | -41.11818 | 146.40941 | 15001 ft | 320 kts | 163° |
| 2026-05-04 20:42 | -41.13886 | 146.42005 | 14565 ft | 321 kts | 157° |
| 2026-05-04 20:42 | -41.15770 | 146.43628 | 14120 ft | 325 kts | 143° |
| 2026-05-04 20:42 | -41.17296 | 146.45846 | 13651 ft | 330 kts | 128° |
| 2026-05-04 20:43 | -41.18379 | 146.48558 | 13168 ft | 335 kts | 114° |
| 2026-05-04 20:43 | -41.19162 | 146.51469 | 12708 ft | 333 kts | 112° |
| 2026-05-04 20:43 | -41.19934 | 146.54353 | 12262 ft | 332 kts | 112° |
| 2026-05-04 20:43 | -41.20708 | 146.57249 | 11799 ft | 331 kts | 112° |
| 2026-05-04 20:44 | -41.21474 | 146.60114 | 11343 ft | 329 kts | 112° |
| 2026-05-04 20:44 | -41.22240 | 146.62976 | 10904 ft | 328 kts | 112° |
| 2026-05-04 20:44 | -41.23004 | 146.65839 | 10449 ft | 327 kts | 112° |
| 2026-05-04 20:44 | -41.23753 | 146.68647 | 10096 ft | 324 kts | 112° |
| 2026-05-04 20:45 | -41.24486 | 146.71409 | 9980 ft | 312 kts | 112° |
| 2026-05-04 20:45 | -41.25193 | 146.74073 | 9854 ft | 302 kts | 112° |
| 2026-05-04 20:45 | -41.25887 | 146.76689 | 9475 ft | 301 kts | 112° |
| 2026-05-04 20:45 | -41.26576 | 146.79281 | 9191 ft | 296 kts | 112° |
| 2026-05-04 20:46 | -41.27256 | 146.81848 | 8604 ft | 292 kts | 112° |
| 2026-05-04 20:46 | -41.27927 | 146.84378 | 7943 ft | 289 kts | 112° |
| 2026-05-04 20:46 | -41.28589 | 146.86879 | 7433 ft | 287 kts | 112° |
| 2026-05-04 20:46 | -41.29245 | 146.89365 | 6872 ft | 282 kts | 112° |
| 2026-05-04 20:47 | -41.29886 | 146.91803 | 6292 ft | 279 kts | 112° |
| 2026-05-04 20:47 | -41.30520 | 146.94217 | 5832 ft | 270 kts | 112° |
| 2026-05-04 20:47 | -41.31110 | 146.96474 | 5767 ft | 247 kts | 112° |
| 2026-05-04 20:47 | -41.31587 | 146.98296 | 5717 ft | 228 kts | 113° |
| 2026-05-04 20:48 | -41.32091 | 147.00213 | 5628 ft | 210 kts | 114° |
| 2026-05-04 20:48 | -41.32739 | 147.01891 | 5553 ft | 201 kts | 130° |
| 2026-05-04 20:48 | -41.33333 | 147.02818 | 5451 ft | 198 kts | 140° |
| 2026-05-04 20:48 | -41.34782 | 147.04228 | 5071 ft | 192 kts | 151° |
| 2026-05-04 20:49 | -41.35538 | 147.04877 | 4873 ft | 191 kts | 151° |
| 2026-05-04 20:49 | -41.36641 | 147.05825 | 4601 ft | 187 kts | 151° |
| 2026-05-04 20:49 | -41.37726 | 147.06759 | 4340 ft | 184 kts | 150° |
| 2026-05-04 20:49 | -41.38783 | 147.07672 | 4078 ft | 180 kts | 150° |
| 2026-05-04 20:50 | -41.40165 | 147.08863 | 3769 ft | 176 kts | 150° |
| 2026-05-04 20:50 | -41.40854 | 147.09450 | 3607 ft | 174 kts | 150° |
| 2026-05-04 20:50 | -41.41868 | 147.10313 | 3372 ft | 171 kts | 150° |
| 2026-05-04 20:50 | -41.42869 | 147.11164 | 3140 ft | 169 kts | 149° |
| 2026-05-04 20:51 | -41.43829 | 147.11982 | 2918 ft | 154 kts | 149° |
| 2026-05-04 20:51 | -41.44691 | 147.12718 | 2716 ft | 143 kts | 149° |
| 2026-05-04 20:51 | -41.45520 | 147.13424 | 2522 ft | 139 kts | 149° |
| 2026-05-04 20:51 | -41.46338 | 147.14120 | 2330 ft | 138 kts | 149° |
| 2026-05-04 20:52 | -41.47146 | 147.14803 | 2139 ft | 138 kts | 149° |
| 2026-05-04 20:52 | -41.47954 | 147.15492 | 1941 ft | 138 kts | 148° |
| 2026-05-04 20:52 | -41.48751 | 147.16174 | 1763 ft | 137 kts | 148° |
| 2026-05-04 20:52 | -41.49565 | 147.16870 | 1556 ft | 137 kts | 148° |
| 2026-05-04 20:53 | -41.50363 | 147.17552 | 1372 ft | 136 kts | 148° |
| 2026-05-04 20:53 | -41.51159 | 147.18232 | 1190 ft | 135 kts | 148° |
| 2026-05-04 20:53 | -41.51918 | 147.18880 | 1024 ft | 134 kts | 148° |
| 2026-05-04 20:53 | -41.52701 | 147.19553 | 840 ft | 134 kts | 148° |
| 2026-05-04 20:54 | -41.53481 | 147.20228 | 649 ft | 133 kts | 149° |
| 2026-05-04 20:54 | -41.54242 | 147.20870 | 570 ft | 112 kts | 149° |
| 2026-05-04 20:54 | -41.54649 | 147.21220 | 567 ft | 39 kts | 147° |
| 2026-05-04 20:54 | -41.54872 | 147.21410 | 568 ft | 38 kts | 147° |
| 2026-05-04 20:55 | -41.55090 | 147.21600 | 563 ft | 25 kts | 146° |
| 2026-05-04 20:55 | -41.55181 | 147.21667 | 563 ft | 12 kts | 170° |
| 2026-05-04 20:55 | -41.55230 | 147.21615 | 560 ft | 5 kts | 274° |
| 2026-05-04 20:55 | -41.55228 | 147.21566 | 559 ft | 6 kts | 272° |
| 2026-05-04 20:56 | -41.55205 | 147.21507 | 558 ft | 9 kts | 317° |
| 2026-05-04 20:56 | -41.55148 | 147.21458 | 562 ft | 11 kts | 328° |
| 2026-05-04 20:56 | -41.55073 | 147.21394 | 562 ft | 14 kts | 327° |
| 2026-05-04 20:56 | -41.54982 | 147.21315 | 561 ft | 17 kts | 327° |
| 2026-05-04 20:57 | -41.54879 | 147.21226 | 560 ft | 18 kts | 327° |
| 2026-05-04 20:57 | -41.54764 | 147.21130 | 566 ft | 21 kts | 328° |
| 2026-05-04 20:57 | -41.54657 | 147.21039 | 565 ft | 17 kts | 327° |
| 2026-05-04 20:57 | -41.54552 | 147.20948 | 566 ft | 19 kts | 327° |
| 2026-05-04 20:58 | -41.54440 | 147.20852 | 567 ft | 20 kts | 327° |
| 2026-05-04 20:58 | -41.54348 | 147.20775 | 568 ft | 10 kts | 328° |
| 2026-05-04 20:58 | -41.54289 | 147.20724 | 567 ft | 5 kts | 326° |
| 2026-05-04 20:58 | -41.54279 | 147.20685 | 568 ft | 5 kts | 268° |
| 2026-05-04 20:59 | -41.54264 | 147.20642 | 565 ft | 4 kts | 293° |
| 2026-05-04 20:59 | -41.54258 | 147.20624 | 566 ft | 0 kts | 293° |